createdAt,value
2022-08-03T00:00:09.412Z,2.10
2022-08-03T00:00:41.550Z,1.83
2022-08-03T00:01:16.542Z,2.35
2022-08-03T00:01:48.137Z,1.90
2022-08-03T00:02:19.801Z,1.80
2022-08-03T00:02:51.501Z,1.70
2022-08-03T00:03:23.261Z,1.95
2022-08-03T00:03:55.297Z,1.83
2022-08-03T00:04:33.574Z,2.30
2022-08-03T00:05:08.400Z,2.10
2022-08-03T00:05:40.164Z,2.20
2022-08-03T00:06:36.816Z,1.92
2022-08-03T00:07:08.862Z,1.70
2022-08-03T00:07:41.171Z,2.10
2022-08-03T00:08:12.729Z,2.00
2022-08-03T00:08:44.481Z,1.92
2022-08-03T00:09:16.090Z,2.17
2022-08-03T00:09:47.669Z,2.25
2022-08-03T00:10:19.266Z,2.30
2022-08-03T00:10:50.902Z,2.00
2022-08-03T00:11:22.675Z,2.53
2022-08-03T00:11:54.401Z,2.20
2022-08-03T00:12:26.126Z,2.20
2022-08-03T00:12:57.810Z,1.88
2022-08-03T00:13:29.426Z,2.28
2022-08-03T00:14:01.328Z,2.15
2022-08-03T00:14:32.996Z,2.30
2022-08-03T00:15:08.307Z,2.30
2022-08-03T00:15:43.434Z,2.17
2022-08-03T00:16:15.284Z,2.08
2022-08-03T00:16:46.836Z,2.33
2022-08-03T00:17:18.647Z,2.00
2022-08-03T00:17:52.916Z,2.28
2022-08-03T00:18:25.528Z,2.28
2022-08-03T00:18:57.165Z,2.42
2022-08-03T00:19:28.814Z,2.30
2022-08-03T00:20:00.352Z,1.98
2022-08-03T00:20:31.999Z,2.60
2022-08-03T00:21:04.421Z,2.20
2022-08-03T00:21:36.054Z,2.40
2022-08-03T00:22:07.637Z,2.50
2022-08-03T00:22:39.282Z,2.17
2022-08-03T00:23:11.437Z,2.42
2022-08-03T00:23:51.397Z,2.38
2022-08-03T00:24:24.175Z,2.40
2022-08-03T00:24:55.805Z,2.33
2022-08-03T00:25:27.784Z,2.58
2022-08-03T00:25:59.355Z,2.45
2022-08-03T00:26:31.738Z,2.20
2022-08-03T00:27:03.329Z,2.30
2022-08-03T00:27:34.888Z,2.07
2022-08-03T00:28:08.619Z,2.58
2022-08-03T00:28:40.154Z,2.65
2022-08-03T00:29:11.882Z,2.28
2022-08-03T00:29:57.583Z,2.47
2022-08-03T00:30:32.486Z,2.15
2022-08-03T00:31:04.087Z,2.30
2022-08-03T00:31:52.192Z,2.55
2022-08-03T00:32:24.814Z,2.45
2022-08-03T00:32:56.946Z,2.90
2022-08-03T00:33:29.965Z,2.80
2022-08-03T00:34:32.611Z,2.45
2022-08-03T00:35:11.351Z,2.70
2022-08-03T00:35:50.136Z,2.63
2022-08-03T00:36:22.084Z,2.10
2022-08-03T00:36:53.686Z,2.35
2022-08-03T00:37:41.527Z,2.30
2022-08-03T00:38:13.981Z,2.30
2022-08-03T00:38:45.529Z,2.50
2022-08-03T00:39:17.086Z,1.98
2022-08-03T00:39:48.745Z,2.20
2022-08-03T00:40:20.872Z,2.42
2022-08-03T00:40:52.454Z,2.05
2022-08-03T00:41:24.310Z,2.45
2022-08-03T00:41:55.895Z,2.35
2022-08-03T00:42:27.468Z,2.00
2022-08-03T00:43:05.422Z,2.47
2022-08-03T00:43:36.986Z,2.20
2022-08-03T00:44:08.525Z,2.67
2022-08-03T00:44:45.166Z,2.30
2022-08-03T00:45:21.712Z,2.13
2022-08-03T00:45:54.730Z,2.53
2022-08-03T00:46:26.330Z,2.65
2022-08-03T00:46:57.972Z,2.17
2022-08-03T00:47:31.817Z,2.20
2022-08-03T00:48:05.042Z,2.50
2022-08-03T00:48:36.710Z,2.15
2022-08-03T00:49:08.386Z,2.40
2022-08-03T00:49:41.338Z,2.67
2022-08-03T00:50:13.480Z,2.60
2022-08-03T00:50:45.062Z,2.40
2022-08-03T00:51:16.866Z,2.78
2022-08-03T00:51:48.717Z,2.50
2022-08-03T00:52:20.544Z,2.47
2022-08-03T00:52:54.218Z,2.50
2022-08-03T00:53:25.986Z,2.30
2022-08-03T00:53:57.600Z,2.17
2022-08-03T00:54:29.874Z,2.30
2022-08-03T00:55:02.728Z,2.50
2022-08-03T00:55:36.256Z,2.38
2022-08-03T00:56:07.857Z,2.70
2022-08-03T00:56:41.048Z,2.50
2022-08-03T00:57:33.617Z,2.50
2022-08-03T00:58:06.688Z,2.53
2022-08-03T00:58:38.284Z,2.53
2022-08-03T00:59:14.484Z,2.40
2022-08-03T00:59:46.427Z,2.55
2022-08-03T01:00:23.697Z,2.83
2022-08-03T01:00:55.299Z,2.30
2022-08-03T01:01:26.992Z,2.38
2022-08-03T01:02:04.028Z,2.70
2022-08-03T01:02:35.979Z,2.45
2022-08-03T01:03:09.180Z,2.55
2022-08-03T01:03:41.253Z,2.42
2022-08-03T01:04:12.906Z,3.35
2022-08-03T01:04:44.456Z,2.70
2022-08-03T01:05:16.148Z,2.30
2022-08-03T01:05:53.809Z,2.72
2022-08-03T01:06:46.016Z,2.60
2022-08-03T01:07:26.644Z,2.60
2022-08-03T01:08:19.256Z,2.40
2022-08-03T01:09:12.285Z,2.53
2022-08-03T01:09:56.097Z,2.90
2022-08-03T01:10:32.555Z,2.72
2022-08-03T01:11:10.233Z,2.65
2022-08-03T01:12:00.608Z,2.45
2022-08-03T01:12:44.045Z,2.63
2022-08-03T01:14:03.736Z,2.95
2022-08-03T01:14:54.208Z,2.42
2022-08-03T01:15:36.666Z,2.75
2022-08-03T01:16:36.023Z,2.83
2022-08-03T01:17:25.643Z,2.63
2022-08-03T01:18:07.993Z,3.20
2022-08-03T01:19:13.250Z,2.70
2022-08-03T01:20:02.651Z,2.47
2022-08-03T01:20:37.062Z,2.40
2022-08-03T01:21:16.755Z,2.65
2022-08-03T01:21:51.024Z,2.63
2022-08-03T01:22:31.451Z,2.65
2022-08-03T01:23:18.020Z,2.67
2022-08-03T01:24:03.795Z,2.53
2022-08-03T01:24:50.826Z,2.70
2022-08-03T01:25:54.277Z,2.72
2022-08-03T01:26:53.800Z,2.63
2022-08-03T01:27:57.044Z,2.67
2022-08-03T01:28:34.806Z,2.38
2022-08-03T01:29:37.151Z,3.03
2022-08-03T01:30:12.024Z,2.50
2022-08-03T01:30:45.863Z,2.50
2022-08-03T01:31:23.891Z,2.28
2022-08-03T01:33:02.018Z,2.35
2022-08-03T01:33:02.301Z,2.67
2022-08-03T01:33:43.067Z,3.05
2022-08-03T01:34:16.864Z,2.85
2022-08-03T01:34:58.996Z,2.70
2022-08-03T01:35:45.494Z,2.60
2022-08-03T01:36:22.018Z,2.78
2022-08-03T01:36:57.581Z,2.53
2022-08-03T01:37:38.760Z,2.80
2022-08-03T01:38:24.498Z,2.75
2022-08-03T01:39:00.556Z,3.40
2022-08-03T01:39:33.283Z,2.85
2022-08-03T01:40:06.577Z,2.80
2022-08-03T01:40:40.816Z,2.92
2022-08-03T01:41:18.809Z,3.10
2022-08-03T01:41:59.435Z,3.17
2022-08-03T01:42:32.725Z,3.20
2022-08-03T01:43:06.070Z,2.60
2022-08-03T01:44:28.231Z,3.22
2022-08-03T01:44:37.058Z,2.95
2022-08-03T01:45:12.663Z,3.47
2022-08-03T01:45:45.032Z,2.70
2022-08-03T01:46:20.578Z,2.90
2022-08-03T01:46:53.248Z,3.20
2022-08-03T01:47:26.016Z,3.25
2022-08-03T01:47:58.970Z,2.63
2022-08-03T01:48:31.863Z,2.53
2022-08-03T01:49:09.257Z,3.05
2022-08-03T01:49:45.291Z,3.20
2022-08-03T01:50:21.100Z,2.90
2022-08-03T01:50:56.414Z,2.90
2022-08-03T01:52:00.854Z,2.97
2022-08-03T01:52:22.151Z,3.15
2022-08-03T01:52:55.489Z,3.50
2022-08-03T01:53:28.446Z,2.83
2022-08-03T01:54:00.977Z,2.97
2022-08-03T01:54:43.207Z,3.03
2022-08-03T01:55:18.808Z,3.30
2022-08-03T01:55:55.296Z,3.10
2022-08-03T01:56:29.245Z,2.65
2022-08-03T01:57:02.340Z,3.40
2022-08-03T01:57:35.182Z,3.20
2022-08-03T01:58:28.458Z,3.20
2022-08-03T01:59:02.667Z,2.95
2022-08-03T01:59:36.429Z,3.28
2022-08-03T02:00:09.847Z,2.92
2022-08-03T02:01:24.058Z,3.05
2022-08-03T02:02:15.295Z,3.25
2022-08-03T02:02:52.026Z,3.17
2022-08-03T02:03:24.455Z,3.07
2022-08-03T02:04:00.903Z,2.83
2022-08-03T02:04:34.594Z,3.40
2022-08-03T02:05:10.918Z,2.97
2022-08-03T02:05:47.142Z,2.92
2022-08-03T02:07:00.362Z,3.03
2022-08-03T02:07:14.474Z,3.40
2022-08-03T02:07:47.960Z,2.80
2022-08-03T02:08:19.857Z,2.83
2022-08-03T02:08:53.919Z,3.30
2022-08-03T02:09:27.821Z,3.00
2022-08-03T02:10:01.477Z,3.33
2022-08-03T02:10:35.447Z,3.13
2022-08-03T02:11:08.136Z,3.17
2022-08-03T02:11:40.903Z,2.60
2022-08-03T02:12:15.281Z,2.90
2022-08-03T02:12:51.132Z,2.83
2022-08-03T02:13:24.968Z,3.15
2022-08-03T02:13:58.451Z,3.20
2022-08-03T02:14:31.632Z,2.90
2022-08-03T02:15:03.982Z,2.70
2022-08-03T02:15:39.500Z,3.28
2022-08-03T02:16:12.669Z,2.90
2022-08-03T02:16:46.090Z,3.28
2022-08-03T02:17:39.564Z,3.13
2022-08-03T02:18:11.846Z,3.20
2022-08-03T02:18:43.578Z,3.28
2022-08-03T02:19:17.383Z,3.40
2022-08-03T02:19:50.847Z,3.30
2022-08-03T02:20:22.621Z,3.20
2022-08-03T02:20:55.762Z,3.13
2022-08-03T02:21:56.352Z,3.17
2022-08-03T02:22:22.650Z,3.05
2022-08-03T02:22:54.410Z,2.95
2022-08-03T02:23:26.085Z,3.60
2022-08-03T02:23:57.892Z,3.28
2022-08-03T02:24:30.137Z,3.15
2022-08-03T02:25:01.834Z,3.00
2022-08-03T02:25:38.777Z,3.72
2022-08-03T02:26:16.689Z,3.00
2022-08-03T02:26:49.801Z,3.53
2022-08-03T02:27:24.545Z,2.95
2022-08-03T02:28:01.317Z,3.30
2022-08-03T02:28:37.152Z,3.42
2022-08-03T02:29:16.378Z,3.00
2022-08-03T02:29:56.400Z,3.03
2022-08-03T02:30:39.112Z,3.00
2022-08-03T02:31:18.028Z,3.05
2022-08-03T02:31:51.122Z,3.35
2022-08-03T02:32:30.749Z,3.00
2022-08-03T02:33:02.946Z,3.20
2022-08-03T02:33:39.025Z,3.08
2022-08-03T02:34:14.192Z,3.22
2022-08-03T02:34:49.025Z,3.13
2022-08-03T02:35:24.492Z,3.75
2022-08-03T02:35:58.263Z,3.05
2022-08-03T02:36:31.921Z,3.30
2022-08-03T02:37:05.060Z,3.45
2022-08-03T02:37:42.990Z,3.58
2022-08-03T02:38:26.303Z,2.97
2022-08-03T02:39:00.784Z,3.20
2022-08-03T02:39:34.369Z,3.22
2022-08-03T02:40:08.102Z,3.50
2022-08-03T02:40:43.224Z,3.47
2022-08-03T02:41:18.107Z,3.30
2022-08-03T02:41:52.421Z,3.42
2022-08-03T02:42:27.023Z,3.55
2022-08-03T02:43:02.803Z,3.60
2022-08-03T02:44:05.555Z,3.75
2022-08-03T02:44:32.694Z,3.10
2022-08-03T02:45:08.348Z,3.70
2022-08-03T02:45:49.061Z,3.25
2022-08-03T02:46:25.560Z,3.60
2022-08-03T02:47:01.929Z,3.35
2022-08-03T02:47:53.233Z,3.55
2022-08-03T02:48:29.459Z,3.22
2022-08-03T02:49:34.953Z,3.00
2022-08-03T02:49:57.425Z,3.63
2022-08-03T02:50:30.699Z,3.10
2022-08-03T02:51:03.737Z,3.22
2022-08-03T02:51:37.664Z,3.30
2022-08-03T02:52:15.857Z,3.47
2022-08-03T02:52:49.654Z,3.10
2022-08-03T02:53:23.498Z,3.55
2022-08-03T02:53:56.581Z,3.95
2022-08-03T02:54:29.029Z,3.42
2022-08-03T02:55:03.374Z,3.17
2022-08-03T02:55:35.907Z,3.28
2022-08-03T02:56:15.671Z,3.22
2022-08-03T02:56:48.287Z,3.47
2022-08-03T02:57:21.595Z,3.80
2022-08-03T02:57:55.577Z,3.50
2022-08-03T02:58:27.475Z,3.35
2022-08-03T02:58:59.613Z,3.63
2022-08-03T02:59:32.198Z,3.80
2022-08-03T03:00:05.690Z,3.20
2022-08-03T03:00:38.699Z,3.38
2022-08-03T03:01:11.544Z,3.40
2022-08-03T03:01:44.669Z,3.60
2022-08-03T03:02:18.293Z,3.50
2022-08-03T03:02:51.855Z,3.60
2022-08-03T03:03:23.835Z,3.75
2022-08-03T03:04:00.224Z,3.42
2022-08-03T03:04:35.277Z,3.13
2022-08-03T03:05:52.344Z,3.67
2022-08-03T03:06:05.603Z,3.63
2022-08-03T03:06:39.343Z,3.75
2022-08-03T03:07:14.499Z,3.30
2022-08-03T03:07:51.693Z,3.47
2022-08-03T03:08:28.415Z,3.33
2022-08-03T03:09:01.469Z,3.30
2022-08-03T03:09:40.319Z,3.45
2022-08-03T03:10:13.593Z,3.47
2022-08-03T03:10:46.608Z,3.30
2022-08-03T03:11:21.453Z,3.28
2022-08-03T03:11:53.905Z,3.13
2022-08-03T03:12:26.793Z,3.58
2022-08-03T03:13:00.987Z,3.13
2022-08-03T03:13:32.845Z,3.50
2022-08-03T03:14:04.809Z,3.08
2022-08-03T03:14:40.893Z,3.30
2022-08-03T03:15:12.629Z,3.40
2022-08-03T03:15:45.500Z,3.42
2022-08-03T03:16:18.902Z,3.47
2022-08-03T03:16:52.481Z,3.13
2022-08-03T03:17:31.062Z,3.40
2022-08-03T03:18:03.435Z,3.45
2022-08-03T03:18:37.432Z,3.20
2022-08-03T03:19:11.657Z,3.88
2022-08-03T03:19:45.652Z,3.30
2022-08-03T03:20:29.800Z,3.10
2022-08-03T03:21:04.091Z,3.00
2022-08-03T03:21:37.422Z,3.47
2022-08-03T03:22:10.036Z,3.38
2022-08-03T03:22:43.498Z,3.50
2022-08-03T03:23:17.816Z,3.10
2022-08-03T03:23:50.186Z,3.33
2022-08-03T03:24:21.980Z,3.38
2022-08-03T03:24:54.769Z,3.58
2022-08-03T03:25:26.546Z,3.22
2022-08-03T03:25:59.033Z,3.53
2022-08-03T03:26:30.787Z,3.55
2022-08-03T03:27:03.580Z,4.03
2022-08-03T03:27:35.456Z,3.03
2022-08-03T03:28:07.630Z,3.40
2022-08-03T03:28:39.728Z,3.47
2022-08-03T03:29:11.924Z,3.60
2022-08-03T03:29:44.178Z,3.38
2022-08-03T03:30:15.797Z,3.47
2022-08-03T03:30:52.786Z,3.40
2022-08-03T03:31:24.575Z,3.87
2022-08-03T03:31:57.402Z,3.58
2022-08-03T03:32:29.864Z,3.55
2022-08-03T03:33:02.848Z,3.55
2022-08-03T03:33:35.354Z,3.92
2022-08-03T03:34:07.285Z,3.45
2022-08-03T03:34:39.066Z,3.95
2022-08-03T03:35:10.895Z,3.33
2022-08-03T03:35:44.653Z,3.45
2022-08-03T03:36:16.324Z,3.33
2022-08-03T03:36:48.003Z,3.70
2022-08-03T03:37:19.767Z,3.50
2022-08-03T03:37:52.274Z,3.00
2022-08-03T03:38:23.897Z,3.00
2022-08-03T03:38:55.524Z,3.40
2022-08-03T03:39:27.145Z,3.50
2022-08-03T03:39:58.776Z,3.20
2022-08-03T03:40:30.535Z,3.30
2022-08-03T03:41:02.753Z,3.50
2022-08-03T03:41:35.124Z,3.35
2022-08-03T03:42:06.872Z,3.30
2022-08-03T03:42:38.662Z,3.63
2022-08-03T03:43:12.185Z,3.40
2022-08-03T03:43:44.065Z,3.67
2022-08-03T03:44:16.042Z,3.47
2022-08-03T03:44:47.676Z,3.28
2022-08-03T03:45:20.691Z,3.85
2022-08-03T03:45:53.731Z,3.92
2022-08-03T03:46:25.760Z,3.97
2022-08-03T03:47:00.639Z,3.22
2022-08-03T03:47:36.296Z,3.53
2022-08-03T03:48:08.699Z,3.50
2022-08-03T03:48:40.566Z,3.80
2022-08-03T03:49:12.875Z,3.90
2022-08-03T03:49:45.549Z,3.72
2022-08-03T03:50:19.231Z,3.88
2022-08-03T03:50:50.950Z,3.45
2022-08-03T03:51:22.577Z,3.65
2022-08-03T03:51:55.446Z,3.80
2022-08-03T03:52:27.110Z,3.08
2022-08-03T03:52:59.048Z,3.50
2022-08-03T03:53:30.640Z,3.28
2022-08-03T03:54:05.805Z,3.92
2022-08-03T03:54:45.470Z,3.90
2022-08-03T03:55:18.331Z,3.63
2022-08-03T03:55:59.782Z,3.70
2022-08-03T03:56:34.366Z,4.28
2022-08-03T03:57:05.958Z,3.72
2022-08-03T03:57:37.550Z,4.03
2022-08-03T03:58:09.268Z,3.90
2022-08-03T03:58:40.855Z,4.10
2022-08-03T03:59:12.528Z,3.97
2022-08-03T03:59:44.485Z,3.85
2022-08-03T04:00:18.655Z,4.00
2022-08-03T04:00:50.963Z,4.43
2022-08-03T04:01:23.329Z,4.80
2022-08-03T04:01:59.131Z,4.38
2022-08-03T04:02:31.237Z,3.90
2022-08-03T04:03:02.925Z,3.60
2022-08-03T04:03:35.817Z,4.18
2022-08-03T04:04:25.641Z,4.20
2022-08-03T04:05:15.498Z,3.80
2022-08-03T04:06:05.946Z,3.78
2022-08-03T04:06:56.414Z,4.30
2022-08-03T04:08:01.505Z,4.10
2022-08-03T04:08:51.832Z,3.72
2022-08-03T04:09:41.975Z,3.75
2022-08-03T04:10:37.744Z,3.75
2022-08-03T04:11:14.710Z,3.85
2022-08-03T04:11:51.490Z,3.53
2022-08-03T04:12:26.437Z,4.17
2022-08-03T04:13:00.600Z,4.30
2022-08-03T04:13:42.486Z,4.13
2022-08-03T04:14:22.826Z,3.70
2022-08-03T04:14:57.026Z,4.10
2022-08-03T04:15:31.400Z,4.20
2022-08-03T04:16:04.224Z,4.03
2022-08-03T04:16:43.840Z,4.25
2022-08-03T04:17:17.113Z,4.18
2022-08-03T04:17:50.791Z,3.80
2022-08-03T04:18:23.578Z,4.37
2022-08-03T04:19:02.409Z,4.40
2022-08-03T04:19:51.336Z,4.35
2022-08-03T04:20:24.062Z,3.80
2022-08-03T04:20:57.167Z,4.15
2022-08-03T04:21:31.352Z,4.25
2022-08-03T04:22:06.572Z,3.85
2022-08-03T04:22:39.744Z,4.10
2022-08-03T04:23:15.441Z,4.30
2022-08-03T04:23:51.518Z,3.55
2022-08-03T04:24:26.557Z,3.93
2022-08-03T04:25:08.902Z,3.83
2022-08-03T04:25:41.306Z,4.10
2022-08-03T04:26:16.359Z,4.55
2022-08-03T04:26:52.773Z,4.00
2022-08-03T04:27:28.832Z,4.10
2022-08-03T04:28:21.026Z,4.43
2022-08-03T04:28:55.140Z,4.00
2022-08-03T04:29:30.838Z,4.20
2022-08-03T04:30:04.874Z,4.00
2022-08-03T04:30:38.906Z,4.27
2022-08-03T04:31:10.484Z,4.10
2022-08-03T04:31:43.304Z,3.90
2022-08-03T04:32:16.102Z,4.20
2022-08-03T04:32:51.816Z,4.13
2022-08-03T04:33:29.234Z,4.03
2022-08-03T04:34:02.541Z,4.50
2022-08-03T04:34:34.192Z,4.53
2022-08-03T04:35:06.860Z,4.60
2022-08-03T04:36:01.341Z,4.10
2022-08-03T04:36:33.635Z,4.03
2022-08-03T04:37:11.474Z,4.15
2022-08-03T04:37:47.974Z,4.40
2022-08-03T04:38:20.191Z,4.60
2022-08-03T04:38:57.416Z,3.63
2022-08-03T04:39:31.861Z,4.30
2022-08-03T04:40:10.606Z,4.30
2022-08-03T04:40:43.868Z,3.95
2022-08-03T04:41:16.896Z,4.43
2022-08-03T04:42:08.197Z,3.97
2022-08-03T04:42:41.978Z,4.13
2022-08-03T04:43:16.840Z,3.90
2022-08-03T04:43:51.267Z,4.30
2022-08-03T04:44:28.347Z,4.60
2022-08-03T04:45:02.786Z,4.75
2022-08-03T04:45:35.771Z,4.65
2022-08-03T04:46:08.693Z,4.53
2022-08-03T04:46:41.960Z,4.28
2022-08-03T04:47:22.800Z,4.20
2022-08-03T04:47:55.000Z,3.97
2022-08-03T04:48:26.750Z,4.43
2022-08-03T04:48:59.290Z,3.97
2022-08-03T04:49:31.820Z,4.22
2022-08-03T04:50:08.072Z,4.25
2022-08-03T04:50:43.123Z,4.45
2022-08-03T04:51:15.225Z,4.30
2022-08-03T04:51:48.917Z,4.47
2022-08-03T04:52:20.666Z,4.00
2022-08-03T04:52:52.246Z,4.40
2022-08-03T04:53:23.989Z,4.05
2022-08-03T04:53:55.634Z,4.50
2022-08-03T04:54:27.261Z,4.78
2022-08-03T04:54:58.930Z,4.45
2022-08-03T04:55:32.201Z,4.10
2022-08-03T04:56:05.575Z,4.13
2022-08-03T04:56:40.537Z,4.72
2022-08-03T04:57:22.259Z,4.50
2022-08-03T04:57:55.650Z,4.72
2022-08-03T04:58:27.293Z,4.00
2022-08-03T04:58:58.871Z,4.15
2022-08-03T04:59:30.485Z,4.70
2022-08-03T05:00:03.638Z,4.07
2022-08-03T05:00:35.409Z,4.65
2022-08-03T05:01:07.199Z,4.50
2022-08-03T05:01:40.781Z,4.18
2022-08-03T05:02:12.415Z,4.38
2022-08-03T05:02:44.021Z,4.60
2022-08-03T05:03:20.414Z,4.68
2022-08-03T05:03:55.693Z,4.38
2022-08-03T05:04:27.278Z,4.38
2022-08-03T05:04:59.577Z,4.57
2022-08-03T05:05:40.665Z,4.32
2022-08-03T05:06:22.045Z,4.28
2022-08-03T05:06:56.781Z,4.47
2022-08-03T05:07:35.417Z,4.85
2022-08-03T05:08:11.249Z,4.57
2022-08-03T05:08:46.968Z,4.32
2022-08-03T05:09:50.117Z,4.50
2022-08-03T05:10:15.900Z,4.70
2022-08-03T05:10:47.790Z,4.05
2022-08-03T05:11:19.531Z,4.43
2022-08-03T05:11:51.093Z,4.50
2022-08-03T05:12:23.760Z,4.57
2022-08-03T05:12:55.328Z,4.75
2022-08-03T05:13:26.953Z,4.85
2022-08-03T05:13:58.546Z,4.72
2022-08-03T05:14:30.368Z,4.75
2022-08-03T05:15:02.401Z,4.40
2022-08-03T05:15:34.005Z,4.80
2022-08-03T05:16:14.865Z,4.18
2022-08-03T05:16:46.507Z,4.60
2022-08-03T05:17:19.532Z,4.40
2022-08-03T05:17:51.101Z,4.55
2022-08-03T05:18:22.727Z,4.40
2022-08-03T05:18:54.293Z,4.50
2022-08-03T05:19:25.849Z,4.50
2022-08-03T05:19:57.449Z,4.60
2022-08-03T05:20:29.035Z,5.00
2022-08-03T05:21:00.655Z,4.70
2022-08-03T05:21:52.184Z,4.50
2022-08-03T05:22:24.086Z,4.70
2022-08-03T05:22:55.653Z,4.50
2022-08-03T05:23:27.700Z,4.35
2022-08-03T05:23:59.281Z,5.53
2022-08-03T05:24:30.849Z,5.00
2022-08-03T05:25:03.051Z,4.60
2022-08-03T05:25:34.735Z,4.30
2022-08-03T05:26:06.458Z,5.07
2022-08-03T05:26:38.099Z,4.85
2022-08-03T05:27:09.675Z,4.85
2022-08-03T05:27:41.353Z,4.10
2022-08-03T05:28:12.941Z,4.75
2022-08-03T05:28:50.682Z,4.68
2022-08-03T05:29:23.056Z,4.85
2022-08-03T05:29:54.727Z,5.50
2022-08-03T05:30:32.409Z,4.68
2022-08-03T05:31:06.157Z,5.53
2022-08-03T05:31:37.805Z,5.28
2022-08-03T05:32:09.436Z,5.20
2022-08-03T05:32:41.090Z,4.68
2022-08-03T05:33:12.778Z,4.70
2022-08-03T05:33:44.799Z,4.10
2022-08-03T05:34:16.378Z,4.25
2022-08-03T05:34:47.994Z,4.57
2022-08-03T05:35:57.366Z,4.68
2022-08-03T05:36:11.121Z,4.13
2022-08-03T05:36:42.748Z,4.72
2022-08-03T05:37:14.381Z,4.88
2022-08-03T05:37:54.509Z,4.93
2022-08-03T05:38:28.547Z,4.38
2022-08-03T05:39:05.631Z,4.90
2022-08-03T05:39:38.023Z,4.70
2022-08-03T05:40:10.289Z,4.70
2022-08-03T05:40:46.862Z,5.15
2022-08-03T05:41:36.550Z,5.15
2022-08-03T05:42:08.959Z,4.85
2022-08-03T05:42:40.535Z,4.68
2022-08-03T05:43:12.143Z,4.72
2022-08-03T05:43:44.882Z,5.43
2022-08-03T05:44:16.466Z,4.45
2022-08-03T05:44:48.105Z,4.73
2022-08-03T05:45:19.984Z,4.63
2022-08-03T05:46:11.750Z,4.80
2022-08-03T05:46:43.179Z,4.90
2022-08-03T05:47:14.791Z,4.75
2022-08-03T05:47:46.657Z,4.90
2022-08-03T05:48:18.248Z,4.72
2022-08-03T05:48:50.204Z,4.80
2022-08-03T05:49:21.801Z,4.75
2022-08-03T05:49:53.413Z,4.85
2022-08-03T05:50:25.097Z,5.00
2022-08-03T05:50:56.725Z,4.85
2022-08-03T05:51:28.964Z,4.90
2022-08-03T05:52:12.106Z,5.20
2022-08-03T05:52:48.073Z,4.68
2022-08-03T05:53:19.953Z,4.85
2022-08-03T05:53:52.257Z,4.70
2022-08-03T05:54:23.839Z,5.22
2022-08-03T05:55:16.081Z,4.70
2022-08-03T05:55:51.313Z,4.57
2022-08-03T05:56:25.879Z,4.77
2022-08-03T05:56:57.517Z,4.68
2022-08-03T05:57:30.227Z,4.65
2022-08-03T05:58:03.858Z,4.53
2022-08-03T05:58:35.474Z,4.57
2022-08-03T05:59:22.773Z,4.57
2022-08-03T05:59:59.052Z,4.68
2022-08-03T06:00:30.754Z,5.00
2022-08-03T06:01:02.812Z,5.57
2022-08-03T06:01:34.438Z,4.70
2022-08-03T06:02:06.228Z,5.20
2022-08-03T06:02:38.254Z,4.65
2022-08-03T06:03:09.941Z,5.05
2022-08-03T06:03:41.586Z,5.38
2022-08-03T06:04:13.406Z,5.00
2022-08-03T06:04:45.507Z,4.68
2022-08-03T06:05:17.129Z,4.50
2022-08-03T06:05:59.952Z,4.90
2022-08-03T06:06:32.561Z,4.80
2022-08-03T06:07:04.177Z,5.18
2022-08-03T06:07:36.042Z,4.50
2022-08-03T06:08:07.829Z,4.90
2022-08-03T06:08:40.415Z,5.20
2022-08-03T06:09:11.986Z,4.63
2022-08-03T06:10:34.880Z,4.82
2022-08-03T06:10:37.852Z,4.93
2022-08-03T06:11:10.027Z,5.25
2022-08-03T06:11:42.145Z,4.57
2022-08-03T06:12:14.339Z,5.43
2022-08-03T06:12:49.304Z,5.10
2022-08-03T06:13:20.878Z,5.20
2022-08-03T06:13:52.452Z,4.50
2022-08-03T06:14:24.021Z,5.00
2022-08-03T06:14:55.753Z,5.03
2022-08-03T06:15:27.337Z,5.63
2022-08-03T06:15:58.913Z,5.50
2022-08-03T06:16:30.605Z,5.20
2022-08-03T06:17:02.181Z,5.55
2022-08-03T06:17:37.614Z,4.80
2022-08-03T06:18:09.456Z,4.90
2022-08-03T06:18:41.191Z,5.17
2022-08-03T06:19:12.790Z,5.50
2022-08-03T06:19:44.374Z,5.15
2022-08-03T06:20:18.640Z,5.22
2022-08-03T06:20:50.915Z,5.20
2022-08-03T06:21:23.933Z,5.30
2022-08-03T06:21:58.761Z,5.57
2022-08-03T06:22:31.438Z,5.10
2022-08-03T06:23:03.536Z,5.20
2022-08-03T06:23:53.499Z,5.25
2022-08-03T06:24:27.208Z,5.70
2022-08-03T06:25:04.799Z,5.07
2022-08-03T06:25:37.370Z,6.18
2022-08-03T06:26:09.028Z,5.22
2022-08-03T06:26:40.602Z,6.20
2022-08-03T06:27:12.333Z,5.35
2022-08-03T06:27:43.895Z,6.28
2022-08-03T06:28:42.477Z,5.28
2022-08-03T06:29:08.533Z,5.78
2022-08-03T06:29:41.480Z,5.53
2022-08-03T06:30:14.577Z,5.10
2022-08-03T06:30:47.832Z,5.53
2022-08-03T06:31:23.977Z,5.63
2022-08-03T06:31:55.760Z,5.95
2022-08-03T06:32:27.364Z,5.28
2022-08-03T06:32:58.951Z,5.80
2022-08-03T06:34:30.045Z,5.32
2022-08-03T06:34:33.938Z,5.88
2022-08-03T06:35:08.582Z,5.45
2022-08-03T06:35:40.154Z,5.68
2022-08-03T06:36:14.093Z,5.93
2022-08-03T06:36:48.470Z,5.78
2022-08-03T06:37:20.107Z,5.32
2022-08-03T06:37:51.975Z,5.97
2022-08-03T06:38:23.634Z,5.78
2022-08-03T06:38:55.174Z,5.90
2022-08-03T06:39:26.742Z,5.78
2022-08-03T06:39:58.366Z,7.45
2022-08-03T06:40:31.314Z,6.72
2022-08-03T06:41:03.003Z,6.60
2022-08-03T06:41:37.494Z,5.77
2022-08-03T06:42:10.563Z,5.90
2022-08-03T06:42:42.640Z,5.88
2022-08-03T06:43:16.056Z,5.15
2022-08-03T06:44:03.305Z,6.10
2022-08-03T06:44:37.583Z,5.78
2022-08-03T06:45:09.798Z,5.65
2022-08-03T06:45:42.085Z,5.60
2022-08-03T06:46:13.668Z,5.88
2022-08-03T06:46:45.322Z,5.80
2022-08-03T06:47:17.310Z,5.83
2022-08-03T06:48:06.717Z,5.72
2022-08-03T06:48:38.299Z,5.78
2022-08-03T06:49:09.954Z,5.78
2022-08-03T06:49:41.827Z,5.80
2022-08-03T06:50:17.947Z,5.68
2022-08-03T06:50:50.651Z,5.65
2022-08-03T06:51:23.663Z,5.60
2022-08-03T06:52:15.248Z,5.60
2022-08-03T06:53:06.922Z,5.75
2022-08-03T06:53:38.944Z,6.10
2022-08-03T06:54:10.935Z,5.65
2022-08-03T06:54:42.571Z,5.78
2022-08-03T06:55:14.287Z,5.60
2022-08-03T06:55:45.872Z,5.82
2022-08-03T06:56:17.465Z,5.28
2022-08-03T06:56:49.086Z,6.00
2022-08-03T06:57:20.702Z,5.82
2022-08-03T06:57:52.323Z,6.38
2022-08-03T06:58:23.938Z,5.63
2022-08-03T06:58:55.513Z,6.03
2022-08-03T07:00:06.519Z,5.80
2022-08-03T07:00:19.331Z,6.15
2022-08-03T07:00:50.934Z,5.65
2022-08-03T07:01:22.564Z,5.82
2022-08-03T07:01:54.282Z,5.40
2022-08-03T07:02:28.270Z,6.53
2022-08-03T07:03:00.316Z,6.03
2022-08-03T07:03:31.917Z,5.68
2022-08-03T07:04:04.962Z,6.30
2022-08-03T07:04:36.521Z,5.87
2022-08-03T07:05:09.515Z,5.30
2022-08-03T07:05:42.334Z,5.80
2022-08-03T07:06:13.926Z,5.90
2022-08-03T07:06:45.478Z,5.45
2022-08-03T07:07:17.824Z,5.53
2022-08-03T07:07:49.613Z,5.32
2022-08-03T07:08:33.157Z,6.40
2022-08-03T07:09:05.729Z,5.78
2022-08-03T07:09:37.377Z,6.05
2022-08-03T07:10:10.051Z,5.83
2022-08-03T07:10:41.666Z,5.90
2022-08-03T07:11:13.267Z,5.90
2022-08-03T07:11:44.841Z,6.00
2022-08-03T07:12:16.485Z,5.60
2022-08-03T07:12:55.586Z,5.85
2022-08-03T07:13:27.893Z,6.05
2022-08-03T07:13:59.493Z,6.20
2022-08-03T07:14:31.146Z,6.28
2022-08-03T07:15:04.046Z,5.78
2022-08-03T07:15:55.547Z,5.60
2022-08-03T07:16:27.444Z,5.95
2022-08-03T07:16:59.067Z,5.70
2022-08-03T07:17:33.591Z,5.75
2022-08-03T07:18:05.357Z,5.28
2022-08-03T07:18:40.374Z,5.80
2022-08-03T07:19:12.316Z,5.60
2022-08-03T07:19:43.924Z,5.40
2022-08-03T07:20:17.450Z,5.90
2022-08-03T07:20:49.064Z,6.00
2022-08-03T07:21:20.658Z,5.90
2022-08-03T07:21:53.623Z,6.10
2022-08-03T07:22:25.720Z,5.85
2022-08-03T07:22:57.298Z,5.45
2022-08-03T07:23:28.864Z,5.90
2022-08-03T07:24:00.440Z,5.25
2022-08-03T07:24:32.076Z,6.03
2022-08-03T07:25:04.976Z,5.68
2022-08-03T07:25:37.357Z,5.93
2022-08-03T07:26:08.934Z,5.60
2022-08-03T07:26:40.546Z,5.90
2022-08-03T07:27:12.134Z,5.70
2022-08-03T07:27:51.693Z,6.25
2022-08-03T07:28:23.534Z,6.20
2022-08-03T07:28:55.124Z,6.50
2022-08-03T07:29:26.724Z,5.80
2022-08-03T07:29:58.739Z,5.32
2022-08-03T07:30:30.375Z,6.85
2022-08-03T07:31:01.940Z,6.40
2022-08-03T07:31:34.430Z,5.57
2022-08-03T07:32:06.277Z,5.67
2022-08-03T07:32:49.838Z,5.75
2022-08-03T07:33:22.555Z,6.13
2022-08-03T07:33:54.135Z,6.13
2022-08-03T07:34:25.787Z,5.18
2022-08-03T07:35:00.913Z,5.80
2022-08-03T07:35:33.142Z,5.78
2022-08-03T07:36:05.189Z,5.70
2022-08-03T07:36:36.995Z,6.13
2022-08-03T07:37:08.633Z,5.32
2022-08-03T07:37:40.430Z,5.87
2022-08-03T07:38:24.631Z,5.90
2022-08-03T07:38:58.144Z,5.72
2022-08-03T07:39:29.965Z,5.93
2022-08-03T07:40:02.975Z,6.15
2022-08-03T07:40:34.820Z,5.68
2022-08-03T07:41:06.449Z,5.88
2022-08-03T07:41:38.021Z,5.75
2022-08-03T07:42:13.046Z,5.93
2022-08-03T07:42:44.603Z,5.43
2022-08-03T07:43:17.587Z,5.37
2022-08-03T07:43:49.187Z,5.50
2022-08-03T07:44:21.333Z,5.60
2022-08-03T07:44:53.031Z,5.82
2022-08-03T07:45:26.489Z,6.18
2022-08-03T07:45:58.115Z,5.55
2022-08-03T07:46:29.687Z,6.03
2022-08-03T07:47:03.490Z,5.70
2022-08-03T07:47:36.081Z,6.05
2022-08-03T07:48:12.099Z,5.57